Terminal Aerodrome Forecast
Issued by NWS

Home | Current Version | Previous Version | Text Only | Print | Product List | Glossary On
Versions: 1 2 3 4 5 6 7 8 9 10 11 12 13
000
FTUS45 KABQ 222300
TAFAEG
TAF
KAEG 222337Z 2300/2324 25005KT P6SM VCTS SCT050CB BKN100
      TEMPO 2300/2301 VRB15G23KT 5SM TSRA BR BKN040CB
     FM230200 VRB05KT P6SM SCT110
     FM230600 VRB03KT P6SM FEW050
     FM231800 23008KT P6SM SKC=

USA.gov is the U.S. government's official web portal to all federal, state and local government web resources and services.